Time;durP1;ratioP1;P1;durP2;ratioP2;P2;SDS_P1;SDS_P2;PMS_P1;PMS_P2;Temp;Humidity;BMP_temperature;BMP_pressure;BME280_temperature;BME280_humidity;BME280_pressure;Samples;Min_cycle;Max_cycle;Signal;HPM_P1;HPM_P2
2022/11/12 00:00:37;;;;;;;13.07;6.75;;;8.40;99.90;;;;;;5054192;28;20051;-88
2022/11/12 00:03:03;;;;;;;10.43;6.97;;;8.60;99.90;;;;;;5052383;28;20052;-89
2022/11/12 00:05:29;;;;;;;13.65;7.35;;;8.40;99.90;;;;;;5051723;28;20051;-88
2022/11/12 00:07:54;;;;;;;10.65;7.00;;;9.40;99.90;;;;;;5069405;28;20048;-89
2022/11/12 00:10:21;;;;;;;12.30;7.03;;;8.40;99.90;;;;;;5035514;28;20044;-88
2022/11/12 00:12:47;;;;;;;10.85;6.57;;;8.40;99.90;;;;;;5052638;28;20131;-87
2022/11/12 00:15:13;;;;;;;11.70;7.13;;;8.50;99.90;;;;;;5068037;28;20181;-89
2022/11/12 00:17:38;;;;;;;10.18;6.53;;;9.00;99.90;;;;;;5053108;28;20032;-88
2022/11/12 00:20:06;;;;;;;12.23;7.05;;;8.40;99.90;;;;;;5068577;28;20044;-88
2022/11/12 00:22:31;;;;;;;10.18;7.10;;;8.30;99.90;;;;;;5068245;28;20435;-89
2022/11/12 00:24:57;;;;;;;10.50;6.45;;;9.00;99.90;;;;;;5087996;28;20044;-89
2022/11/12 00:27:23;;;;;;;12.07;6.75;;;9.00;99.90;;;;;;5051335;28;20047;-89
2022/11/12 00:29:49;;;;;;;18.67;6.90;;;9.20;99.90;;;;;;5035569;28;20052;-89
2022/11/12 00:32:15;;;;;;;9.65;6.32;;;8.90;99.90;;;;;;5051001;28;20085;-87
2022/11/12 00:34:40;;;;;;;11.05;7.18;;;8.90;99.90;;;;;;5068554;28;20590;-87
2022/11/12 00:37:06;;;;;;;10.50;7.45;;;8.20;99.90;;;;;;5051382;28;20093;-87
2022/11/12 00:39:32;;;;;;;10.18;6.47;;;8.10;99.90;;;;;;5051696;28;20040;-87
2022/11/12 00:41:58;;;;;;;11.30;7.55;;;9.10;99.90;;;;;;5035932;28;20472;-87
2022/11/12 00:44:24;;;;;;;11.50;7.68;;;8.50;99.90;;;;;;5050358;28;20487;-87
2022/11/12 00:46:49;;;;;;;12.07;7.10;;;8.10;99.90;;;;;;5052202;28;20043;-86
2022/11/12 00:49:15;;;;;;;11.10;7.57;;;8.10;99.90;;;;;;5067674;28;20040;-86
2022/11/12 00:51:41;;;;;;;11.52;6.72;;;8.50;99.90;;;;;;5051680;28;20059;-87
2022/11/12 00:54:07;;;;;;;19.38;8.20;;;8.90;99.90;;;;;;5086343;28;20165;-87
2022/11/12 00:56:33;;;;;;;11.48;7.05;;;8.90;99.90;;;;;;5067971;28;20051;-87
2022/11/12 00:58:59;;;;;;;12.82;7.13;;;8.60;99.90;;;;;;5068655;28;20043;-87
2022/11/12 01:01:25;;;;;;;11.48;7.22;;;8.10;99.90;;;;;;5050944;28;20394;-87
2022/11/12 01:03:51;;;;;;;15.98;7.00;;;8.10;99.90;;;;;;5051430;28;20052;-87
2022/11/12 01:06:20;;;;;;;14.80;7.18;;;8.00;99.90;;;;;;5067877;28;20036;-87
2022/11/12 01:08:47;;;;;;;9.90;6.65;;;8.50;99.90;;;;;;5051504;28;20047;-87
2022/11/12 01:11:25;;;;;;;11.70;7.47;;;8.00;99.90;;;;;;5050731;28;20086;-87
2022/11/12 01:14:00;;;;;;;11.75;7.05;;;7.90;99.90;;;;;;5067166;28;20047;-87
2022/11/12 01:16:28;;;;;;;12.15;7.25;;;7.90;99.90;;;;;;5068357;28;20079;-87
2022/11/12 01:18:59;;;;;;;11.05;7.85;;;7.90;99.90;;;;;;5085051;28;20498;-87
2022/11/12 01:21:27;;;;;;;9.40;6.82;;;7.90;99.90;;;;;;5086572;28;20044;-88
2022/11/12 01:23:53;;;;;;;16.08;8.07;;;7.80;99.90;;;;;;5066586;28;20040;-87
2022/11/12 01:26:21;;;;;;;10.15;7.38;;;8.90;99.90;;;;;;5050915;28;20044;-87
2022/11/12 01:28:47;;;;;;;14.00;8.60;;;7.90;99.90;;;;;;5051071;28;20101;-89
2022/11/12 01:31:19;;;;;;;16.98;8.10;;;7.80;99.90;;;;;;5033191;28;20048;-89
2022/11/12 01:33:47;;;;;;;14.82;7.72;;;7.80;99.90;;;;;;5068284;28;20135;-89
2022/11/12 01:36:16;;;;;;;14.40;7.90;;;8.80;99.90;;;;;;5066875;28;20051;-89
2022/11/12 01:38:43;;;;;;;13.32;7.90;;;7.80;99.90;;;;;;5085935;28;20087;-87
2022/11/12 01:41:11;;;;;;;16.52;8.35;;;8.40;99.90;;;;;;5066755;28;20040;-87
2022/11/12 01:43:37;;;;;;;12.10;7.55;;;8.60;99.90;;;;;;5050722;28;20396;-89
2022/11/12 01:46:12;;;;;;;12.93;8.18;;;8.80;99.90;;;;;;5050711;28;20184;-89
2022/11/12 01:48:54;;;;;;;20.70;7.85;;;7.70;99.90;;;;;;5049941;28;20097;-88
2022/11/12 01:51:24;;;;;;;7.55;5.32;;;7.70;99.90;;;;;;5067756;28;20119;-89
2022/11/12 01:53:55;;;;;;;14.93;8.48;;;8.80;99.90;;;;;;5049927;28;20052;-90
2022/11/12 01:56:23;;;;;;;14.25;8.13;;;7.60;99.90;;;;;;5066776;28;20048;-90
2022/11/12 01:58:54;;;;;;;18.27;7.32;;;7.90;99.90;;;;;;5050935;28;20483;-89
2022/11/12 02:01:20;;;;;;;11.98;8.15;;;7.50;99.90;;;;;;5073434;28;20044;-85
2022/11/12 02:03:46;;;;;;;13.25;7.88;;;7.50;99.90;;;;;;5072833;28;20048;-89
2022/11/12 02:06:14;;;;;;;12.00;8.05;;;7.40;99.90;;;;;;5068119;28;20048;-89
2022/11/12 02:08:40;;;;;;;12.68;7.95;;;7.40;99.90;;;;;;5050737;28;20040;-87
2022/11/12 02:11:18;;;;;;;12.93;8.10;;;8.10;99.90;;;;;;5033347;28;20497;-87
2022/11/12 02:13:59;;;;;;;13.55;8.30;;;7.20;99.90;;;;;;5067260;28;20043;-87
2022/11/12 02:16:38;;;;;;;13.75;8.25;;;7.90;99.90;;;;;;5052800;28;20392;-88
2022/11/12 02:19:07;;;;;;;11.40;8.27;;;7.20;99.90;;;;;;5066402;28;20402;-88
2022/11/12 02:21:33;;;;;;;16.48;8.98;;;7.70;99.90;;;;;;5067108;28;20093;-88
2022/11/12 02:24:12;;;;;;;12.13;7.97;;;7.70;99.90;;;;;;5066520;28;20056;-88
2022/11/12 02:26:43;;;;;;;16.13;9.02;;;7.10;99.90;;;;;;5066446;28;20051;-88
2022/11/12 02:29:09;;;;;;;16.85;8.63;;;7.10;99.90;;;;;;5067019;28;20127;-88
2022/11/12 02:31:35;;;;;;;12.27;8.43;;;7.00;99.90;;;;;;5066321;28;20479;-87
2022/11/12 02:34:02;;;;;;;14.48;8.77;;;7.60;99.90;;;;;;5067076;28;20392;-87
2022/11/12 02:36:28;;;;;;;17.13;11.68;;;6.90;99.90;;;;;;5049749;28;20708;-87
2022/11/12 02:38:54;;;;;;;14.85;10.50;;;6.90;99.90;;;;;;5067029;28;20132;-87
2022/11/12 02:41:20;;;;;;;21.17;10.30;;;6.90;99.90;;;;;;5049624;28;20138;-87
2022/11/12 02:43:46;;;;;;;18.42;10.52;;;7.00;99.90;;;;;;5066362;28;20491;-87
2022/11/12 02:46:12;;;;;;;20.17;10.68;;;7.00;99.90;;;;;;5085178;28;20402;-88
2022/11/12 02:48:38;;;;;;;15.75;9.98;;;7.60;99.90;;;;;;5065910;28;20044;-88
2022/11/12 02:51:04;;;;;;;17.20;9.48;;;7.10;99.90;;;;;;5050671;28;20094;-88
2022/11/12 02:53:31;;;;;;;16.77;10.20;;;6.90;99.90;;;;;;5065879;28;20048;-89
2022/11/12 02:55:57;;;;;;;19.38;11.15;;;6.90;99.90;;;;;;5049962;28;20040;-88
2022/11/12 02:58:23;;;;;;;15.93;10.77;;;6.90;99.90;;;;;;5033296;28;20457;-88
2022/11/12 03:00:49;;;;;;;17.17;11.10;;;6.90;99.90;;;;;;5016580;28;20040;-88
2022/11/12 03:03:15;;;;;;;19.48;11.18;;;7.40;99.90;;;;;;5066908;28;20048;-88
2022/11/12 03:05:41;;;;;;;17.98;10.43;;;6.90;99.90;;;;;;5084080;28;20135;-88
2022/11/12 03:08:08;;;;;;;16.08;10.50;;;7.30;99.90;;;;;;5069054;28;20175;-88
2022/11/12 03:10:37;;;;;;;15.65;8.63;;;7.70;99.90;;;;;;5069629;28;20435;-88
2022/11/12 03:13:02;;;;;;;16.67;10.23;;;7.70;99.90;;;;;;5070540;28;20597;-88
2022/11/12 03:15:29;;;;;;;20.83;10.63;;;7.80;99.90;;;;;;5052290;28;20052;-89
2022/11/12 03:17:56;;;;;;;17.35;9.85;;;7.60;99.90;;;;;;5053023;28;20044;-88
2022/11/12 03:20:22;;;;;;;14.77;9.38;;;7.70;99.90;;;;;;5070524;28;20044;-88
2022/11/12 03:23:00;;;;;;;16.08;11.15;;;7.70;99.90;;;;;;5069135;28;20501;-88
2022/11/12 03:25:26;;;;;;;17.83;10.35;;;6.50;99.90;;;;;;5070425;28;20122;-88
2022/11/12 03:28:12;;;;;;;21.10;11.73;;;7.30;99.90;;;;;;5069493;28;20048;-89
2022/11/12 03:30:40;;;;;;;19.70;12.15;;;6.50;99.90;;;;;;5088003;28;20360;-87
2022/11/12 03:33:08;;;;;;;21.52;12.57;;;6.60;99.90;;;;;;5070076;28;20109;-88
2022/11/12 03:35:35;;;;;;;18.65;11.50;;;7.40;99.90;;;;;;5068771;28;20048;-88
2022/11/12 03:38:01;;;;;;;19.95;12.77;;;6.60;99.90;;;;;;5053499;28;20052;-88
2022/11/12 03:40:28;;;;;;;18.13;11.65;;;6.90;99.90;;;;;;5052727;28;20051;-88
2022/11/12 03:42:53;;;;;;;16.77;10.65;;;6.60;99.90;;;;;;5070228;28;20043;-88
2022/11/12 03:45:22;;;;;;;20.38;13.23;;;6.60;99.90;;;;;;5052075;28;20537;-87
2022/11/12 03:47:50;;;;;;;18.20;12.63;;;6.60;99.90;;;;;;5069114;28;20044;-88
2022/11/12 03:50:18;;;;;;;20.55;12.20;;;7.50;99.90;;;;;;5069398;28;20044;-89
2022/11/12 03:52:49;;;;;;;20.48;12.05;;;6.70;99.90;;;;;;5051873;28;20075;-88
2022/11/12 03:55:16;;;;;;;19.17;12.43;;;6.70;99.90;;;;;;5053267;28;20455;-88
2022/11/12 03:57:42;;;;;;;22.48;12.38;;;6.80;99.90;;;;;;5051811;28;20051;-88
2022/11/12 04:00:09;;;;;;;18.90;12.95;;;6.70;99.90;;;;;;5052989;28;20085;-88
2022/11/12 04:02:35;;;;;;;20.05;12.30;;;6.60;99.90;;;;;;5068509;28;20177;-88
2022/11/12 04:10:34;;;;;;;24.70;12.88;;;7.30;99.90;;;;;;5074251;28;20560;-87
2022/11/12 04:21:49;;;;;;;19.05;11.90;;;6.50;99.90;;;;;;5071541;28;20113;-89
2022/11/12 04:23:58;;;;;;;20.17;13.07;;;6.50;99.90;;;;;;5068726;28;20046;-88
2022/11/12 04:26:24;;;;;;;19.40;11.68;;;6.40;99.90;;;;;;5035825;28;20040;-87
2022/11/12 04:31:33;;;;;;;18.23;11.63;;;6.30;99.90;;;;;;5039692;28;20040;-88
2022/11/12 04:34:27;;;;;;;19.73;12.25;;;6.20;99.90;;;;;;5019235;28;20351;-88
2022/11/12 04:36:45;;;;;;;19.73;12.05;;;6.20;99.90;;;;;;5040062;28;20077;-88
2022/11/12 04:39:11;;;;;;;20.70;11.48;;;6.90;99.90;;;;;;5051973;28;20040;-87
2022/11/12 04:47:04;;;;;;;19.08;11.98;;;6.00;99.90;;;;;;5055139;28;20055;-88
2022/11/12 04:49:30;;;;;;;21.50;10.98;;;5.90;99.90;;;;;;5018650;28;20032;-88
2022/11/12 04:52:04;;;;;;;15.55;10.43;;;5.90;99.90;;;;;;5051825;28;20451;-88
2022/11/12 04:54:31;;;;;;;15.68;11.40;;;5.80;99.90;;;;;;5052859;28;20487;-87
2022/11/12 04:56:57;;;;;;;14.90;11.15;;;5.80;99.90;;;;;;5051260;28;20040;-88
2022/11/12 04:59:23;;;;;;;17.40;12.52;;;6.80;99.90;;;;;;5035453;28;20134;-88
2022/11/12 05:01:48;;;;;;;23.63;13.10;;;5.70;99.90;;;;;;5050295;28;20043;-88
2022/11/12 05:04:14;;;;;;;19.55;12.30;;;5.70;99.90;;;;;;5068355;28;20119;-88
2022/11/12 05:06:51;;;;;;;17.05;11.43;;;6.70;99.90;;;;;;5017544;28;20503;-88
2022/11/12 05:09:20;;;;;;;20.80;12.65;;;6.10;99.90;;;;;;5035529;28;20040;-88
2022/11/12 05:11:46;;;;;;;17.77;11.50;;;5.70;99.90;;;;;;5067597;28;20040;-88
2022/11/12 05:14:11;;;;;;;21.30;12.02;;;5.70;99.90;;;;;;5049829;28;20055;-88
2022/11/12 05:16:38;;;;;;;21.73;13.20;;;6.40;99.90;;;;;;5035438;28;20043;-88
2022/11/12 05:19:04;;;;;;;19.05;12.27;;;7.00;99.90;;;;;;5033355;28;20052;-88
2022/11/12 05:24:14;;;;;;;17.60;12.18;;;5.80;99.90;;;;;;5038718;28;20051;-88
2022/11/12 05:26:40;;;;;;;16.20;11.32;;;5.80;99.90;;;;;;5050144;28;20035;-88
2022/11/12 05:29:06;;;;;;;20.67;12.93;;;5.90;99.90;;;;;;5018240;28;20052;-88
2022/11/12 05:31:32;;;;;;;30.65;12.38;;;7.00;99.90;;;;;;5049638;28;20043;-88
2022/11/12 05:33:58;;;;;;;19.50;12.65;;;5.90;99.90;;;;;;5068877;28;20052;-88
2022/11/12 05:36:24;;;;;;;20.73;12.82;;;6.00;99.90;;;;;;5067132;28;20052;-88
2022/11/12 05:38:50;;;;;;;22.60;13.95;;;6.00;99.90;;;;;;5051496;28;20086;-88
2022/11/12 05:41:16;;;;;;;23.05;14.32;;;7.10;99.90;;;;;;5049839;28;20372;-88
2022/11/12 05:43:42;;;;;;;22.63;12.27;;;6.90;99.90;;;;;;5066515;28;20052;-88
2022/11/12 05:46:08;;;;;;;19.08;13.63;;;6.10;99.90;;;;;;5034166;28;20047;-87
2022/11/12 05:48:34;;;;;;;20.73;14.85;;;6.20;99.90;;;;;;5013197;28;20044;-88
2022/11/12 05:50:59;;;;;;;24.10;15.77;;;6.20;99.90;;;;;;5033936;28;20071;-88
2022/11/12 05:53:25;;;;;;;20.45;14.43;;;6.30;99.90;;;;;;5012764;28;20649;-88
2022/11/12 05:55:51;;;;;;;22.80;15.02;;;6.90;99.90;;;;;;5032010;28;20128;-87
2022/11/12 05:58:16;;;;;;;19.23;12.55;;;6.30;99.90;;;;;;5033203;28;20040;-88
2022/11/12 06:00:42;;;;;;;23.23;14.98;;;6.30;99.90;;;;;;5050489;28;20043;-88
2022/11/12 06:03:08;;;;;;;21.52;14.38;;;6.40;99.90;;;;;;5030604;28;20400;-88
2022/11/12 06:05:35;;;;;;;20.83;14.75;;;6.40;99.90;;;;;;5028438;28;20102;-89
2022/11/12 06:08:04;;;;;;;20.30;13.25;;;6.50;99.90;;;;;;5034709;28;20436;-88
2022/11/12 06:10:30;;;;;;;19.63;13.52;;;6.30;99.90;;;;;;5049636;28;20461;-88
2022/11/12 06:12:56;;;;;;;22.77;14.05;;;6.50;99.90;;;;;;5050267;28;20055;-88
2022/11/12 06:15:25;;;;;;;27.38;15.25;;;6.30;99.90;;;;;;5048948;28;20142;-88
2022/11/12 06:17:53;;;;;;;19.42;13.05;;;7.20;99.90;;;;;;5033960;28;20140;-88
2022/11/12 06:20:21;;;;;;;17.83;12.23;;;6.20;99.90;;;;;;5056426;28;20119;-88
2022/11/12 06:22:46;;;;;;;18.05;12.68;;;6.20;99.90;;;;;;5053377;28;20101;-87
2022/11/12 06:25:12;;;;;;;21.65;13.00;;;6.10;99.90;;;;;;5067908;28;20502;-88
2022/11/12 06:27:38;;;;;;;18.88;12.43;;;6.00;99.90;;;;;;5049081;28;20040;-88
2022/11/12 06:30:05;;;;;;;16.77;11.25;;;5.90;99.90;;;;;;5033347;28;20059;-87
2022/11/12 06:32:31;;;;;;;19.90;12.52;;;5.80;99.90;;;;;;5065689;28;20059;-87
2022/11/12 06:34:57;;;;;;;18.42;12.38;;;5.80;99.90;;;;;;5049636;28;20419;-87
2022/11/12 06:37:22;;;;;;;17.50;11.73;;;5.70;99.90;;;;;;5030241;28;20036;-87
2022/11/12 06:39:48;;;;;;;22.50;12.45;;;6.40;99.90;;;;;;5013487;28;20117;-88
2022/11/12 06:42:14;;;;;;;19.60;11.52;;;5.50;99.90;;;;;;5068047;28;20076;-88
2022/11/12 06:44:40;;;;;;;17.15;11.80;;;5.50;99.90;;;;;;5052975;28;20502;-89
2022/11/12 06:47:06;;;;;;;17.42;11.70;;;5.50;99.90;;;;;;5037789;28;20097;-87
2022/11/12 06:49:31;;;;;;;16.98;11.35;;;6.50;99.90;;;;;;5052305;28;20469;-86
2022/11/12 06:51:57;;;;;;;19.38;11.90;;;5.70;99.90;;;;;;5019195;28;20041;-87
2022/11/12 06:54:23;;;;;;;18.95;11.00;;;5.70;99.90;;;;;;5036398;28;20044;-86
2022/11/12 06:56:48;;;;;;;19.75;12.05;;;6.00;99.90;;;;;;5053161;28;20146;-87
2022/11/12 06:59:15;;;;;;;22.98;12.40;;;6.20;99.90;;;;;;5034112;28;20068;-89
2022/11/12 07:01:40;;;;;;;22.58;12.82;;;5.30;99.90;;;;;;5050012;28;20047;-91
2022/11/12 07:04:06;;;;;;;20.27;12.65;;;5.40;99.90;;;;;;5054380;28;20159;-90
2022/11/12 07:06:33;;;;;;;18.77;12.57;;;5.40;99.90;;;;;;5035735;28;20048;-89
2022/11/12 07:08:59;;;;;;;20.02;11.57;;;5.50;99.90;;;;;;5036825;28;20502;-89
2022/11/12 07:11:24;;;;;;;32.03;15.98;;;6.10;99.90;;;;;;5052605;28;20036;-90
2022/11/12 07:13:50;;;;;;;47.35;19.80;;;5.60;99.90;;;;;;5052386;28;20048;-90
2022/11/12 07:16:17;;;;;;;73.97;22.50;;;6.60;99.90;;;;;;5020638;28;20510;-90
2022/11/12 07:18:44;;;;;;;46.90;19.48;;;6.60;99.90;;;;;;5052094;28;20161;-89
2022/11/12 07:21:12;;;;;;;63.83;20.40;;;6.10;99.90;;;;;;5069697;28;20087;-90
2022/11/12 07:23:38;;;;;;;46.58;19.88;;;6.20;99.90;;;;;;5052127;28;20036;-90
2022/11/12 07:26:16;;;;;;;109.57;21.88;;;6.40;99.90;;;;;;5069474;28;20134;-89
2022/11/12 07:28:42;;;;;;;104.93;23.23;;;6.40;99.90;;;;;;5053139;28;20090;-91
2022/11/12 07:31:11;;;;;;;158.93;26.00;;;6.50;99.90;;;;;;5068217;28;20511;-91
2022/11/12 07:33:36;;;;;;;105.15;23.45;;;6.60;99.90;;;;;;5053041;28;20059;-91
2022/11/12 07:36:08;;;;;;;196.93;28.20;;;7.30;99.90;;;;;;5068455;28;20051;-89
2022/11/12 07:38:36;;;;;;;155.18;25.63;;;6.70;99.90;;;;;;5069231;28;20043;-93
2022/11/12 07:41:09;;;;;;;151.05;23.20;;;6.70;99.90;;;;;;5067593;28;20464;-89
2022/11/12 07:43:36;;;;;;;162.25;22.65;;;7.20;99.90;;;;;;5050667;28;20040;-87
2022/11/12 07:46:04;;;;;;;126.55;21.95;;;7.70;99.90;;;;;;5050339;28;20536;-88
2022/11/12 07:48:30;;;;;;;50.33;19.88;;;6.80;99.90;;;;;;5068437;28;20040;-88
2022/11/12 07:51:09;;;;;;;101.90;20.70;;;6.70;99.90;;;;;;5069584;28;20497;-86
2022/11/12 07:53:34;;;;;;;112.95;20.98;;;6.80;99.90;;;;;;5050349;28;20058;-86
2022/11/12 07:56:01;;;;;;;104.72;20.80;;;6.80;99.90;;;;;;5035607;28;20047;-86
2022/11/12 07:58:30;;;;;;;109.50;21.67;;;6.80;99.90;;;;;;5051554;28;20101;-88
2022/11/12 08:00:56;;;;;;;114.47;20.98;;;6.80;99.90;;;;;;5068898;28;20495;-94
2022/11/12 08:03:22;;;;;;;142.13;23.90;;;6.90;99.90;;;;;;5036203;28;20086;-87
2022/11/12 08:05:47;;;;;;;131.10;23.52;;;6.90;99.90;;;;;;5034430;28;20097;-87
2022/11/12 08:08:13;;;;;;;156.25;23.63;;;6.90;99.90;;;;;;5053034;28;20048;-87
2022/11/12 08:10:39;;;;;;;127.03;22.02;;;7.30;99.90;;;;;;5050928;28;20491;-87
2022/11/12 08:13:05;;;;;;;124.32;24.30;;;7.10;99.90;;;;;;5035401;28;20154;-88
2022/11/12 08:15:31;;;;;;;148.55;26.30;;;8.00;99.90;;;;;;5067857;28;20044;-86
2022/11/12 08:17:57;;;;;;;98.22;23.45;;;7.90;99.90;;;;;;5053093;28;20036;-87
2022/11/12 08:20:22;;;;;;;122.10;24.63;;;7.60;99.90;;;;;;5035397;28;20440;-88
2022/11/12 08:22:48;;;;;;;50.92;22.48;;;7.20;99.90;;;;;;5086416;28;20036;-91
2022/11/12 08:25:15;;;;;;;75.00;23.38;;;7.30;99.90;;;;;;5052215;28;20504;-87
2022/11/12 08:27:40;;;;;;;103.97;23.92;;;7.30;99.90;;;;;;5051647;28;20048;-86
2022/11/12 08:30:07;;;;;;;127.95;24.52;;;8.50;99.90;;;;;;5037963;28;20189;-87
2022/11/12 08:32:33;;;;;;;115.65;26.17;;;7.40;99.90;;;;;;5068602;28;20111;-89
2022/11/12 08:34:58;;;;;;;107.05;25.50;;;7.40;99.90;;;;;;5034659;28;20130;-88
2022/11/12 08:37:24;;;;;;;89.03;22.67;;;7.90;99.90;;;;;;5034961;28;20518;-88
2022/11/12 08:39:50;;;;;;;96.25;23.83;;;8.00;99.90;;;;;;5050814;28;20123;-87
2022/11/12 08:42:15;;;;;;;71.93;21.70;;;8.60;99.90;;;;;;5034667;28;20062;-87
2022/11/12 08:44:41;;;;;;;112.82;22.73;;;7.60;99.90;;;;;;5067038;28;20052;-87
2022/11/12 08:47:07;;;;;;;89.45;22.13;;;8.60;99.90;;;;;;5068661;28;20042;-87
2022/11/12 08:49:32;;;;;;;75.68;21.67;;;7.70;99.90;;;;;;5033920;28;20438;-87
2022/11/12 08:51:58;;;;;;;78.88;22.13;;;8.00;99.90;;;;;;5051559;28;20471;-84
2022/11/12 08:54:23;;;;;;;97.80;22.35;;;7.80;99.90;;;;;;5050983;28;20039;-85
2022/11/12 08:56:50;;;;;;;69.78;20.10;;;7.80;99.90;;;;;;5048580;28;20573;-85
2022/11/12 08:59:16;;;;;;;88.38;23.83;;;7.80;99.90;;;;;;5050862;28;20044;-85
2022/11/12 09:01:41;;;;;;;100.88;22.55;;;8.70;99.90;;;;;;5067129;28;20047;-85
2022/11/12 09:04:07;;;;;;;67.47;23.73;;;8.10;99.90;;;;;;5051269;28;20384;-85
2022/11/12 09:06:33;;;;;;;79.43;22.90;;;8.00;99.90;;;;;;5066469;28;20047;-84
2022/11/12 09:08:59;;;;;;;114.03;23.98;;;8.50;99.90;;;;;;5051028;28;20044;-87
2022/11/12 09:11:25;;;;;;;79.28;22.38;;;8.10;99.90;;;;;;5050200;28;20040;-87
2022/11/12 09:13:54;;;;;;;84.20;23.15;;;8.70;99.90;;;;;;5066816;28;20473;-86
2022/11/12 09:16:20;;;;;;;105.00;24.10;;;8.20;99.90;;;;;;5051435;28;20399;-89
2022/11/12 09:18:46;;;;;;;85.97;23.15;;;9.10;99.90;;;;;;5050401;28;20058;-88
2022/11/12 09:21:12;;;;;;;95.18;24.88;;;8.30;99.90;;;;;;5034694;28;20419;-86
2022/11/12 09:23:38;;;;;;;74.25;23.02;;;8.30;99.90;;;;;;5049627;28;20051;-87
2022/11/12 09:26:05;;;;;;;67.95;21.27;;;8.40;99.90;;;;;;5085430;28;20047;-83
2022/11/12 09:28:31;;;;;;;121.82;25.98;;;8.40;99.90;;;;;;5084788;28;20050;-85
2022/11/12 09:30:57;;;;;;;125.22;25.83;;;9.10;99.90;;;;;;5065741;28;20059;-86
2022/11/12 09:33:30;;;;;;;95.72;23.35;;;9.50;99.90;;;;;;5067194;28;20056;-86
2022/11/12 09:35:58;;;;;;;;;;;9.10;99.90;;;;;;5066763;28;20048;-85
2022/11/12 09:38:24;;;;;;;102.45;22.80;;;9.70;99.90;;;;;;5067052;28;20372;-85
2022/11/12 09:40:50;;;;;;;170.90;26.15;;;8.60;99.90;;;;;;5065742;28;20135;-85
2022/11/12 09:43:31;;;;;;;70.03;21.63;;;8.80;99.90;;;;;;5084236;28;20051;-86
2022/11/12 09:46:07;;;;;;;116.60;23.02;;;8.70;99.90;;;;;;5049862;28;20044;-85
2022/11/12 09:48:46;;;;;;;79.88;21.83;;;8.70;99.90;;;;;;5083666;28;20047;-86
2022/11/12 09:51:26;;;;;;;120.82;25.75;;;8.70;99.90;;;;;;5085156;28;20068;-85
2022/11/12 09:54:16;;;;;;;147.13;26.90;;;9.50;99.90;;;;;;5064165;28;20056;-85
2022/11/12 09:56:42;;;;;;;187.55;29.52;;;8.80;99.90;;;;;;5064994;28;20079;-84
2022/11/12 09:59:12;;;;;;;114.95;23.88;;;8.80;99.90;;;;;;5084159;28;20040;-84
2022/11/12 10:01:52;;;;;;;122.70;24.23;;;9.50;99.90;;;;;;5065923;28;20043;-88
2022/11/12 10:04:42;;;;;;;88.13;23.30;;;8.90;99.90;;;;;;5084860;28;20287;-85
2022/11/12 10:07:17;;;;;;;64.07;20.70;;;8.90;99.90;;;;;;5066055;28;20088;-88
2022/11/12 10:10:09;;;;;;;130.80;22.98;;;8.90;99.90;;;;;;5065614;28;20040;-88
2022/11/12 10:12:57;;;;;;;104.78;20.63;;;8.90;99.90;;;;;;5075342;28;20056;-86
2022/11/12 10:19:03;;;;;;;64.05;19.48;;;8.90;99.90;;;;;;5072693;28;20644;-85
2022/11/12 10:21:44;;;;;;;89.45;21.58;;;8.90;99.90;;;;;;5056197;28;20048;-85
2022/11/12 10:24:11;;;;;;;93.85;21.25;;;8.90;99.90;;;;;;5090466;28;20047;-86
2022/11/12 10:26:38;;;;;;;68.82;21.02;;;8.80;99.90;;;;;;5090354;28;20044;-86
2022/11/12 10:29:10;;;;;;;75.80;21.50;;;9.50;99.90;;;;;;5091088;28;20042;-86
2022/11/12 10:31:36;;;;;;;91.32;23.23;;;8.80;99.90;;;;;;5055653;28;20372;-86
2022/11/12 10:34:16;;;;;;;62.30;19.45;;;9.30;99.90;;;;;;5057445;28;20506;-91
2022/11/12 10:36:56;;;;;;;64.45;19.67;;;8.80;99.90;;;;;;5057120;28;20083;-96
2022/11/12 10:39:39;;;;;;;57.28;19.48;;;8.80;99.90;;;;;;5057093;28;20039;-85
2022/11/12 10:42:13;;;;;;;62.63;19.90;;;9.10;99.90;;;;;;5056716;28;20573;-84
2022/11/12 10:44:42;;;;;;;70.35;18.92;;;8.90;99.90;;;;;;5090125;28;20061;-86
2022/11/12 10:47:43;;;;;;;69.07;21.23;;;8.90;99.90;;;;;;5040222;28;20040;-85
2022/11/12 10:50:23;;;;;;;97.30;18.63;;;8.90;99.90;;;;;;5090923;28;20170;-85
2022/11/12 10:53:04;;;;;;;49.67;19.70;;;8.90;99.90;;;;;;5055527;28;20048;-85
2022/11/12 10:55:35;;;;;;;56.72;17.55;;;9.70;99.90;;;;;;5070341;28;20051;-86
2022/11/12 10:58:10;;;;;;;74.78;19.50;;;8.90;99.90;;;;;;5071049;28;20044;-86
2022/11/12 11:00:50;;;;;;;37.00;17.65;;;8.90;99.90;;;;;;5071729;28;20464;-86
2022/11/12 11:03:23;;;;;;;42.33;18.35;;;9.80;99.90;;;;;;5056791;28;20076;-85
2022/11/12 11:05:54;;;;;;;65.50;20.20;;;8.90;99.90;;;;;;5055513;28;20524;-83
2022/11/12 11:08:41;;;;;;;44.90;18.30;;;8.90;99.90;;;;;;5090304;28;20189;-84
2022/11/12 11:11:20;;;;;;;53.15;18.88;;;8.90;99.90;;;;;;5071746;28;20039;-83
2022/11/12 11:13:47;;;;;;;43.55;19.38;;;8.90;99.90;;;;;;5071870;28;20112;-84
2022/11/12 11:16:16;;;;;;;36.95;17.50;;;9.60;99.90;;;;;;5071962;28;20040;-84
2022/11/12 11:18:46;;;;;;;55.35;17.27;;;9.90;99.90;;;;;;5071125;28;20040;-84
2022/11/12 11:21:31;;;;;;;40.28;18.05;;;9.00;99.90;;;;;;5055962;28;20044;-84
2022/11/12 11:24:24;;;;;;;47.42;18.48;;;9.80;99.90;;;;;;5070927;28;20079;-85
2022/11/12 11:26:58;;;;;;;54.38;20.67;;;9.00;99.90;;;;;;5072809;28;20457;-85
2022/11/12 11:30:06;;;;;;;43.17;19.48;;;9.00;99.90;;;;;;5068486;28;20064;-85
2022/11/12 11:33:04;;;;;;;50.25;19.65;;;9.00;99.90;;;;;;5075400;28;20052;-84
2022/11/12 11:35:42;;;;;;;42.20;18.23;;;9.00;99.90;;;;;;5087123;28;20088;-86
2022/11/12 11:38:52;;;;;;;37.40;19.23;;;9.00;99.90;;;;;;5069413;28;20048;-84
2022/11/12 11:41:50;;;;;;;43.53;18.27;;;9.00;99.90;;;;;;5023759;28;20436;-86
2022/11/12 11:44:27;;;;;;;35.65;18.52;;;9.00;99.90;;;;;;5052088;28;20482;-84
2022/11/12 11:47:40;;;;;;;39.35;20.55;;;9.30;99.90;;;;;;5069225;28;20040;-85
2022/11/12 11:50:24;;;;;;;38.13;18.92;;;9.10;99.90;;;;;;5040990;28;20495;-85
2022/11/12 11:53:10;;;;;;;33.08;20.27;;;9.20;99.90;;;;;;5086398;28;20429;-85
2022/11/12 11:55:57;;;;;;;43.45;22.50;;;9.30;99.90;;;;;;5067066;28;20148;-86
2022/11/12 11:58:41;;;;;;;31.40;19.65;;;9.40;99.90;;;;;;5085481;28;20044;-85
2022/11/12 12:01:10;;;;;;;33.28;19.10;;;9.40;99.90;;;;;;5051184;28;20080;-84
2022/11/12 12:03:42;;;;;;;38.05;20.38;;;9.60;99.90;;;;;;5068455;28;20509;-84
2022/11/12 12:06:29;;;;;;;38.85;20.30;;;9.60;99.90;;;;;;5068090;28;20429;-86
2022/11/12 12:09:06;;;;;;;32.25;19.02;;;9.60;99.90;;;;;;5068708;28;20048;-85
2022/11/12 12:11:57;;;;;;;41.15;19.67;;;10.60;99.90;;;;;;5067390;28;20054;-84
2022/11/12 12:14:51;;;;;;;30.75;18.90;;;9.60;99.90;;;;;;5067715;28;20383;-84
2022/11/12 12:17:38;;;;;;;32.65;19.48;;;9.50;99.90;;;;;;5086620;28;20044;-84
2022/11/12 12:20:23;;;;;;;31.52;20.33;;;9.60;99.90;;;;;;5085721;28;20119;-84
2022/11/12 12:22:58;;;;;;;29.67;18.25;;;9.60;99.90;;;;;;5085693;28;20127;-83
2022/11/12 12:25:31;;;;;;;28.10;19.00;;;9.70;99.90;;;;;;5086614;28;20479;-84
2022/11/12 12:28:11;;;;;;;31.33;19.60;;;10.50;99.90;;;;;;5067921;28;20411;-84
2022/11/12 12:30:41;;;;;;;26.95;17.95;;;10.70;99.90;;;;;;5085956;28;20120;-85
2022/11/12 12:33:28;;;;;;;29.98;19.38;;;9.80;99.90;;;;;;5067688;28;20053;-84
2022/11/12 12:36:17;;;;;;;26.35;18.90;;;9.80;99.90;;;;;;5085708;28;20048;-84
2022/11/12 12:39:18;;;;;;;33.45;19.55;;;9.90;99.90;;;;;;5085144;28;20135;-85
2022/11/12 12:41:59;;;;;;;30.75;17.95;;;10.00;99.90;;;;;;5084788;28;20548;-83
2022/11/12 12:44:58;;;;;;;26.38;18.83;;;9.90;99.90;;;;;;5050558;28;20052;-85
2022/11/12 12:47:17;;;;;;;33.10;19.40;;;9.90;99.90;;;;;;5068168;28;20044;-84
2022/11/12 12:49:44;;;;;;;28.30;19.40;;;10.00;99.90;;;;;;5055241;28;20054;-86
2022/11/12 12:52:14;;;;;;;28.45;18.05;;;10.00;99.90;;;;;;5072299;28;20044;-87
2022/11/12 12:54:39;;;;;;;31.75;20.75;;;10.10;99.90;;;;;;5051483;28;20044;-84
2022/11/12 12:57:33;;;;;;;28.13;19.70;;;10.10;99.90;;;;;;5051354;28;20040;-86
2022/11/12 13:00:31;;;;;;;27.35;18.20;;;10.10;99.90;;;;;;5061659;28;20388;-87
2022/11/12 13:02:57;;;;;;;30.92;20.15;;;10.10;99.90;;;;;;5048327;28;20492;-86
2022/11/12 13:05:27;;;;;;;30.80;18.85;;;10.00;99.90;;;;;;5033476;28;20482;-83
2022/11/12 13:07:55;;;;;;;28.30;18.95;;;10.00;99.90;;;;;;5068115;28;20465;-84
2022/11/12 13:10:40;;;;;;;29.58;19.50;;;10.70;99.90;;;;;;5067390;28;20050;-86
2022/11/12 13:13:18;;;;;;;30.15;18.13;;;9.90;99.90;;;;;;5067592;28;20096;-84
2022/11/12 13:15:46;;;;;;;24.42;17.90;;;9.90;99.90;;;;;;5049773;28;20062;-83
2022/11/12 13:18:37;;;;;;;28.45;19.35;;;9.90;99.90;;;;;;5050273;28;20055;-85
2022/11/12 13:21:18;;;;;;;40.53;18.83;;;10.00;99.90;;;;;;5050977;28;20044;-85
2022/11/12 13:24:07;;;;;;;28.88;19.42;;;10.10;99.90;;;;;;5049956;28;20112;-84